sensor_id;sensor_type;location;lat;lon;timestamp;pressure;altitude;pressure_sealevel;temperature;humidity
83122;BME280;73002;47.238;9.006;2024-01-30T00:01:27;96289.16;;;7.64;44.82
83122;BME280;73002;47.238;9.006;2024-01-30T00:03:52;96293.69;;;8.11;43.92
83122;BME280;73002;47.238;9.006;2024-01-30T00:27:02;96292.66;;;7.53;44.77
83122;BME280;73002;47.238;9.006;2024-01-30T00:29:28;96285.41;;;7.37;45.22
83122;BME280;73002;47.238;9.006;2024-01-30T00:44:42;96285.53;;;7.36;45.61
83122;BME280;73002;47.238;9.006;2024-01-30T00:47:10;96296.56;;;7.38;45.83
83122;BME280;73002;47.238;9.006;2024-01-30T01:03:05;96288.38;;;7.02;46.61
83122;BME280;73002;47.238;9.006;2024-01-30T01:05:31;96294.94;;;7.37;45.65
83122;BME280;73002;47.238;9.006;2024-01-30T01:07:56;96296.66;;;7.27;46.08
83122;BME280;73002;47.238;9.006;2024-01-30T01:10:22;96299.59;;;7.53;44.76
83122;BME280;73002;47.238;9.006;2024-01-30T01:12:49;96283.09;;;7.54;44.49
83122;BME280;73002;47.238;9.006;2024-01-30T01:30:46;96290.63;;;7.67;44.28
83122;BME280;73002;47.238;9.006;2024-01-30T01:53:43;96287.03;;;7.08;46.59
83122;BME280;73002;47.238;9.006;2024-01-30T01:56:08;96279.97;;;7.10;46.16
83122;BME280;73002;47.238;9.006;2024-01-30T01:58:35;96286.13;;;7.18;45.56
83122;BME280;73002;47.238;9.006;2024-01-30T02:01:04;96279.00;;;7.41;45.34
83122;BME280;73002;47.238;9.006;2024-01-30T02:16:16;96270.97;;;7.44;45.10
83122;BME280;73002;47.238;9.006;2024-01-30T02:28:55;96281.41;;;7.23;45.57
83122;BME280;73002;47.238;9.006;2024-01-30T02:31:21;96285.97;;;7.51;45.32
83122;BME280;73002;47.238;9.006;2024-01-30T02:33:49;96277.13;;;7.53;45.19
83122;BME280;73002;47.238;9.006;2024-01-30T02:36:15;96274.63;;;7.01;46.47
83122;BME280;73002;47.238;9.006;2024-01-30T02:56:47;96276.44;;;7.51;45.05
83122;BME280;73002;47.238;9.006;2024-01-30T02:59:13;96272.69;;;7.34;45.17
83122;BME280;73002;47.238;9.006;2024-01-30T03:01:45;96276.53;;;7.40;45.10
83122;BME280;73002;47.238;9.006;2024-01-30T03:04:11;96281.19;;;7.46;44.97
83122;BME280;73002;47.238;9.006;2024-01-30T03:06:37;96265.38;;;7.39;44.84
83122;BME280;73002;47.238;9.006;2024-01-30T03:09:03;96266.81;;;7.22;45.12
83122;BME280;73002;47.238;9.006;2024-01-30T03:11:31;96272.88;;;7.42;45.00
83122;BME280;73002;47.238;9.006;2024-01-30T03:13:56;96274.75;;;7.40;44.88
83122;BME280;73002;47.238;9.006;2024-01-30T03:16:22;96275.41;;;7.33;45.04
83122;BME280;73002;47.238;9.006;2024-01-30T03:39:11;96253.94;;;6.71;46.22
83122;BME280;73002;47.238;9.006;2024-01-30T03:41:37;96263.06;;;6.75;46.73
83122;BME280;73002;47.238;9.006;2024-01-30T03:44:06;96267.84;;;6.16;48.57
83122;BME280;73002;47.238;9.006;2024-01-30T03:59:27;96247.59;;;6.84;45.24
83122;BME280;73002;47.238;9.006;2024-01-30T04:01:56;96245.22;;;6.72;45.34
83122;BME280;73002;47.238;9.006;2024-01-30T04:04:21;96238.69;;;6.77;44.52
83122;BME280;73002;47.238;9.006;2024-01-30T04:06:48;96252.28;;;7.00;44.93
83122;BME280;73002;47.238;9.006;2024-01-30T04:14:24;96252.59;;;6.76;46.00
83122;BME280;73002;47.238;9.006;2024-01-30T04:16:51;96245.66;;;6.77;45.69
83122;BME280;73002;47.238;9.006;2024-01-30T04:19:17;96243.66;;;6.90;45.24
83122;BME280;73002;47.238;9.006;2024-01-30T04:29:18;96238.81;;;6.76;46.19
83122;BME280;73002;47.238;9.006;2024-01-30T04:31:44;96241.25;;;6.68;46.41
83122;BME280;73002;47.238;9.006;2024-01-30T04:34:10;96241.38;;;6.66;46.29
83122;BME280;73002;47.238;9.006;2024-01-30T04:36:39;96255.22;;;6.86;46.27
83122;BME280;73002;47.238;9.006;2024-01-30T04:57:21;96253.03;;;6.60;46.95
83122;BME280;73002;47.238;9.006;2024-01-30T04:59:46;96255.59;;;6.81;46.32
83122;BME280;73002;47.238;9.006;2024-01-30T05:02:12;96249.78;;;6.89;46.42
83122;BME280;73002;47.238;9.006;2024-01-30T05:04:37;96250.41;;;6.81;46.61
83122;BME280;73002;47.238;9.006;2024-01-30T05:07:03;96259.22;;;6.48;46.90
83122;BME280;73002;47.238;9.006;2024-01-30T05:32:16;96262.25;;;6.74;45.90
83122;BME280;73002;47.238;9.006;2024-01-30T05:34:42;96279.44;;;6.85;46.33
83122;BME280;73002;47.238;9.006;2024-01-30T05:37:11;96269.38;;;6.61;46.61
83122;BME280;73002;47.238;9.006;2024-01-30T05:39:43;96271.69;;;6.64;46.58
83122;BME280;73002;47.238;9.006;2024-01-30T05:42:09;96271.13;;;6.60;46.66
83122;BME280;73002;47.238;9.006;2024-01-30T05:44:35;96276.28;;;6.60;46.50
83122;BME280;73002;47.238;9.006;2024-01-30T05:47:03;96282.53;;;6.79;46.46
83122;BME280;73002;47.238;9.006;2024-01-30T05:49:28;96283.19;;;6.71;46.56
83122;BME280;73002;47.238;9.006;2024-01-30T05:51:54;96290.53;;;6.55;47.55
83122;BME280;73002;47.238;9.006;2024-01-30T06:10:06;96287.31;;;6.62;47.05
83122;BME280;73002;47.238;9.006;2024-01-30T06:12:35;96301.16;;;6.52;47.37
83122;BME280;73002;47.238;9.006;2024-01-30T06:15:01;96294.66;;;6.57;47.32
83122;BME280;73002;47.238;9.006;2024-01-30T06:26:44;96310.28;;;6.56;47.35
83122;BME280;73002;47.238;9.006;2024-01-30T06:29:09;96310.78;;;6.92;46.30
83122;BME280;73002;47.238;9.006;2024-01-30T06:31:40;96313.19;;;6.83;46.50
83122;BME280;73002;47.238;9.006;2024-01-30T06:34:10;96300.63;;;6.79;46.20
83122;BME280;73002;47.238;9.006;2024-01-30T06:36:37;96309.25;;;6.89;45.91
83122;BME280;73002;47.238;9.006;2024-01-30T07:39:47;96347.09;;;7.11;47.93
83122;BME280;73002;47.238;9.006;2024-01-30T09:48:26;96388.44;;;16.26;33.20
83122;BME280;73002;47.238;9.006;2024-01-30T09:50:53;96385.28;;;16.89;34.32
83122;BME280;73002;47.238;9.006;2024-01-30T09:53:19;96381.50;;;16.76;33.44
83122;BME280;73002;47.238;9.006;2024-01-30T10:17:25;96376.41;;;16.32;35.27
83122;BME280;73002;47.238;9.006;2024-01-30T10:19:50;96373.97;;;16.30;35.36
83122;BME280;73002;47.238;9.006;2024-01-30T10:22:21;96364.34;;;15.86;34.89
83122;BME280;73002;47.238;9.006;2024-01-30T10:24:48;96374.97;;;16.14;36.08
83122;BME280;73002;47.238;9.006;2024-01-30T10:29:52;96372.47;;;15.91;39.28
83122;BME280;73002;47.238;9.006;2024-01-30T10:32:19;96368.97;;;15.84;37.69
83122;BME280;73002;47.238;9.006;2024-01-30T10:34:48;96367.28;;;15.68;39.40
83122;BME280;73002;47.238;9.006;2024-01-30T10:39:53;96357.72;;;15.31;40.91
83122;BME280;73002;47.238;9.006;2024-01-30T14:06:45;96311.94;;;15.63;39.55
83122;BME280;73002;47.238;9.006;2024-01-30T14:09:11;96302.84;;;15.44;40.56
83122;BME280;73002;47.238;9.006;2024-01-30T14:20:45;96310.91;;;14.90;40.89
83122;BME280;73002;47.238;9.006;2024-01-30T14:23:10;96317.00;;;15.50;40.47
83122;BME280;73002;47.238;9.006;2024-01-30T14:25:38;96316.13;;;15.28;40.74
83122;BME280;73002;47.238;9.006;2024-01-30T14:28:04;96316.59;;;15.46;40.94
83122;BME280;73002;47.238;9.006;2024-01-30T15:02:13;96321.94;;;14.62;43.17
83122;BME280;73002;47.238;9.006;2024-01-30T15:04:40;96324.00;;;14.43;43.19
83122;BME280;73002;47.238;9.006;2024-01-30T15:07:05;96331.69;;;14.45;43.38
83122;BME280;73002;47.238;9.006;2024-01-30T15:09:31;96333.38;;;14.38;43.07
83122;BME280;73002;47.238;9.006;2024-01-30T15:12:00;96325.63;;;13.90;44.05
83122;BME280;73002;47.238;9.006;2024-01-30T15:58:13;96339.88;;;13.23;46.63
83122;BME280;73002;47.238;9.006;2024-01-30T16:00:39;96352.25;;;13.54;45.82
83122;BME280;73002;47.238;9.006;2024-01-30T16:03:05;96347.03;;;13.29;46.35
83122;BME280;73002;47.238;9.006;2024-01-30T16:05:32;96353.56;;;13.42;46.23
83122;BME280;73002;47.238;9.006;2024-01-30T16:23:46;96361.75;;;13.14;44.50
83122;BME280;73002;47.238;9.006;2024-01-30T16:26:12;96360.44;;;13.02;43.81
83122;BME280;73002;47.238;9.006;2024-01-30T16:36:17;96364.03;;;12.93;41.52
83122;BME280;73002;47.238;9.006;2024-01-30T16:43:53;96376.28;;;12.51;40.45
83122;BME280;73002;47.238;9.006;2024-01-30T16:46:18;96386.72;;;12.67;39.64
83122;BME280;73002;47.238;9.006;2024-01-30T16:48:47;96377.13;;;12.76;39.78
83122;BME280;73002;47.238;9.006;2024-01-30T16:51:16;96383.50;;;12.82;39.71
83122;BME280;73002;47.238;9.006;2024-01-30T16:53:41;96370.56;;;12.64;39.23
83122;BME280;73002;47.238;9.006;2024-01-30T16:56:08;96382.16;;;12.69;39.64
83122;BME280;73002;47.238;9.006;2024-01-30T16:58:34;96382.97;;;12.54;39.47
83122;BME280;73002;47.238;9.006;2024-01-30T17:03:38;96394.06;;;12.47;39.46
83122;BME280;73002;47.238;9.006;2024-01-30T17:06:12;96392.41;;;12.38;40.40
83122;BME280;73002;47.238;9.006;2024-01-30T17:08:37;96395.75;;;12.14;41.68
83122;BME280;73002;47.238;9.006;2024-01-30T17:16:15;96387.41;;;12.10;42.94
83122;BME280;73002;47.238;9.006;2024-01-30T17:18:40;96374.72;;;12.07;43.25
83122;BME280;73002;47.238;9.006;2024-01-30T17:21:16;96378.47;;;12.13;43.41
83122;BME280;73002;47.238;9.006;2024-01-30T17:29:33;96393.13;;;12.06;42.54
83122;BME280;73002;47.238;9.006;2024-01-30T17:31:59;96380.06;;;11.98;42.28
83122;BME280;73002;47.238;9.006;2024-01-30T17:34:24;96383.88;;;12.20;41.35
83122;BME280;73002;47.238;9.006;2024-01-30T17:36:53;96396.91;;;12.28;40.79
83122;BME280;73002;47.238;9.006;2024-01-30T17:55:22;96400.31;;;11.86;39.60
83122;BME280;73002;47.238;9.006;2024-01-30T17:57:50;96416.16;;;11.84;39.85
83122;BME280;73002;47.238;9.006;2024-01-30T18:00:16;96409.44;;;11.82;40.62
83122;BME280;73002;47.238;9.006;2024-01-30T18:02:45;96405.94;;;11.65;41.13
83122;BME280;73002;47.238;9.006;2024-01-30T18:10:16;96400.94;;;11.71;40.69
83122;BME280;73002;47.238;9.006;2024-01-30T18:12:45;96410.22;;;11.48;41.97
83122;BME280;73002;47.238;9.006;2024-01-30T18:15:11;96426.19;;;11.71;40.69
83122;BME280;73002;47.238;9.006;2024-01-30T18:17:37;96424.94;;;11.57;40.57
83122;BME280;73002;47.238;9.006;2024-01-30T18:38:40;96455.50;;;11.03;41.99
83122;BME280;73002;47.238;9.006;2024-01-30T18:41:06;96457.31;;;11.28;41.61
83122;BME280;73002;47.238;9.006;2024-01-30T18:43:33;96461.84;;;11.44;41.05
83122;BME280;73002;47.238;9.006;2024-01-30T18:46:00;96451.91;;;11.48;40.80
83122;BME280;73002;47.238;9.006;2024-01-30T19:15:00;96486.50;;;11.14;41.70
83122;BME280;73002;47.238;9.006;2024-01-30T19:17:26;96481.06;;;11.25;41.80
83122;BME280;73002;47.238;9.006;2024-01-30T19:19:55;96481.41;;;11.30;41.67
83122;BME280;73002;47.238;9.006;2024-01-30T19:22:20;96482.41;;;11.29;42.03
83122;BME280;73002;47.238;9.006;2024-01-30T19:24:46;96480.09;;;11.26;41.80
83122;BME280;73002;47.238;9.006;2024-01-30T19:27:11;96475.69;;;11.45;41.28
83122;BME280;73002;47.238;9.006;2024-01-30T19:37:12;96495.53;;;11.64;40.70
83122;BME280;73002;47.238;9.006;2024-01-30T19:39:38;96501.88;;;11.43;40.79
83122;BME280;73002;47.238;9.006;2024-01-30T19:44:31;96493.09;;;11.44;41.38
83122;BME280;73002;47.238;9.006;2024-01-30T19:46:59;96496.56;;;11.53;41.23
83122;BME280;73002;47.238;9.006;2024-01-30T19:49:29;96493.59;;;11.48;41.66
83122;BME280;73002;47.238;9.006;2024-01-30T19:51:56;96494.06;;;11.43;41.41
83122;BME280;73002;47.238;9.006;2024-01-30T20:14:59;96490.66;;;11.69;40.86
83122;BME280;73002;47.238;9.006;2024-01-30T20:17:25;96485.09;;;11.64;40.30
83122;BME280;73002;47.238;9.006;2024-01-30T20:19:50;96488.50;;;11.64;40.14
83122;BME280;73002;47.238;9.006;2024-01-30T20:22:19;96485.44;;;11.43;40.32
83122;BME280;73002;47.238;9.006;2024-01-30T20:24:44;96493.72;;;11.64;40.50
83122;BME280;73002;47.238;9.006;2024-01-30T20:34:37;96467.22;;;11.25;40.35
83122;BME280;73002;47.238;9.006;2024-01-30T20:37:02;96478.28;;;11.45;40.36
83122;BME280;73002;47.238;9.006;2024-01-30T20:39:28;96469.53;;;11.28;40.76
83122;BME280;73002;47.238;9.006;2024-01-30T20:59:52;96468.50;;;11.21;40.19
83122;BME280;73002;47.238;9.006;2024-01-30T21:02:18;96479.47;;;11.32;40.32
83122;BME280;73002;47.238;9.006;2024-01-30T21:07:18;96466.44;;;11.06;40.41
83122;BME280;73002;47.238;9.006;2024-01-30T21:09:44;96459.84;;;11.02;41.05
83122;BME280;73002;47.238;9.006;2024-01-30T21:12:12;96466.13;;;11.27;40.97
83122;BME280;73002;47.238;9.006;2024-01-30T21:14:37;96473.56;;;11.22;40.17
83122;BME280;73002;47.238;9.006;2024-01-30T21:19:38;96466.13;;;11.27;39.89
83122;BME280;73002;47.238;9.006;2024-01-30T21:22:03;96475.84;;;11.07;40.29
83122;BME280;73002;47.238;9.006;2024-01-30T21:24:29;96484.63;;;11.24;39.42
83122;BME280;73002;47.238;9.006;2024-01-30T21:31:55;96488.44;;;10.76;41.31
83122;BME280;73002;47.238;9.006;2024-01-30T21:34:21;96465.59;;;10.88;39.62
83122;BME280;73002;47.238;9.006;2024-01-30T21:36:46;96482.34;;;10.85;40.52
83122;BME280;73002;47.238;9.006;2024-01-30T21:39:15;96475.63;;;10.65;41.18
83122;BME280;73002;47.238;9.006;2024-01-30T21:41:40;96465.75;;;10.86;40.86
83122;BME280;73002;47.238;9.006;2024-01-30T21:44:12;96459.22;;;10.64;39.92
83122;BME280;73002;47.238;9.006;2024-01-30T21:56:48;96463.00;;;10.14;41.08
83122;BME280;73002;47.238;9.006;2024-01-30T21:59:17;96459.53;;;9.96;41.86
83122;BME280;73002;47.238;9.006;2024-01-30T22:01:42;96477.66;;;10.43;41.39
83122;BME280;73002;47.238;9.006;2024-01-30T22:04:07;96461.94;;;10.07;41.47
83122;BME280;73002;47.238;9.006;2024-01-30T22:24:34;96469.09;;;9.95;41.12
83122;BME280;73002;47.238;9.006;2024-01-30T22:27:02;96472.22;;;9.99;41.19
83122;BME280;73002;47.238;9.006;2024-01-30T22:29:28;96463.03;;;10.05;40.81
83122;BME280;73002;47.238;9.006;2024-01-30T22:31:53;96467.69;;;10.01;41.33
83122;BME280;73002;47.238;9.006;2024-01-30T22:41:54;96445.56;;;9.97;41.15
83122;BME280;73002;47.238;9.006;2024-01-30T22:44:20;96455.63;;;10.10;40.79
83122;BME280;73002;47.238;9.006;2024-01-30T22:46:47;96473.38;;;10.14;41.10
